sensor_id;sensor_type;location;lat;lon;timestamp;P1;durP1;ratioP1;P2;durP2;ratioP2
23668;SDS011;12011;47.422;15.018;2023-09-18T00:00:33;3.88;;;3.88;;
23668;SDS011;12011;47.422;15.018;2023-09-18T00:03:06;4.32;;;4.32;;
23668;SDS011;12011;47.422;15.018;2023-09-18T00:05:37;4.09;;;4.09;;
23668;SDS011;12011;47.422;15.018;2023-09-18T00:08:07;4.28;;;4.28;;
23668;SDS011;12011;47.422;15.018;2023-09-18T00:10:37;4.21;;;4.21;;
23668;SDS011;12011;47.422;15.018;2023-09-18T00:13:07;3.91;;;3.91;;
23668;SDS011;12011;47.422;15.018;2023-09-18T00:15:37;4.06;;;4.06;;
23668;SDS011;12011;47.422;15.018;2023-09-18T00:18:11;3.94;;;3.94;;
23668;SDS011;12011;47.422;15.018;2023-09-18T00:20:42;4.20;;;4.20;;
23668;SDS011;12011;47.422;15.018;2023-09-18T00:23:13;4.60;;;4.60;;
23668;SDS011;12011;47.422;15.018;2023-09-18T00:25:44;4.07;;;4.07;;
23668;SDS011;12011;47.422;15.018;2023-09-18T00:28:13;3.97;;;3.97;;
23668;SDS011;12011;47.422;15.018;2023-09-18T00:30:46;4.51;;;4.51;;
23668;SDS011;12011;47.422;15.018;2023-09-18T00:33:21;4.04;;;4.04;;
23668;SDS011;12011;47.422;15.018;2023-09-18T00:35:50;4.19;;;4.19;;
23668;SDS011;12011;47.422;15.018;2023-09-18T00:38:21;4.11;;;4.11;;
23668;SDS011;12011;47.422;15.018;2023-09-18T00:40:50;4.25;;;4.25;;
23668;SDS011;12011;47.422;15.018;2023-09-18T00:43:20;4.55;;;4.55;;
23668;SDS011;12011;47.422;15.018;2023-09-18T00:45:49;4.52;;;4.52;;
23668;SDS011;12011;47.422;15.018;2023-09-18T00:48:22;4.78;;;4.78;;
23668;SDS011;12011;47.422;15.018;2023-09-18T00:50:53;4.22;;;4.22;;
23668;SDS011;12011;47.422;15.018;2023-09-18T00:53:23;4.04;;;4.04;;
23668;SDS011;12011;47.422;15.018;2023-09-18T00:55:57;4.33;;;4.33;;
23668;SDS011;12011;47.422;15.018;2023-09-18T00:58:35;4.57;;;4.57;;
23668;SDS011;12011;47.422;15.018;2023-09-18T01:01:05;4.29;;;4.29;;
23668;SDS011;12011;47.422;15.018;2023-09-18T01:03:39;3.97;;;3.97;;
23668;SDS011;12011;47.422;15.018;2023-09-18T01:06:09;4.26;;;4.26;;
23668;SDS011;12011;47.422;15.018;2023-09-18T01:08:39;4.16;;;4.16;;
23668;SDS011;12011;47.422;15.018;2023-09-18T01:11:19;4.08;;;4.08;;
23668;SDS011;12011;47.422;15.018;2023-09-18T01:14:03;4.31;;;4.31;;
23668;SDS011;12011;47.422;15.018;2023-09-18T01:16:44;3.90;;;3.90;;
23668;SDS011;12011;47.422;15.018;2023-09-18T01:19:38;4.19;;;4.19;;
23668;SDS011;12011;47.422;15.018;2023-09-18T01:22:11;3.79;;;3.79;;
23668;SDS011;12011;47.422;15.018;2023-09-18T01:24:46;2.93;;;2.93;;
23668;SDS011;12011;47.422;15.018;2023-09-18T01:27:16;4.39;;;4.39;;
23668;SDS011;12011;47.422;15.018;2023-09-18T01:29:47;4.51;;;4.51;;
23668;SDS011;12011;47.422;15.018;2023-09-18T01:32:18;4.67;;;4.67;;
23668;SDS011;12011;47.422;15.018;2023-09-18T01:34:54;4.75;;;4.75;;
23668;SDS011;12011;47.422;15.018;2023-09-18T01:37:28;4.32;;;4.32;;
23668;SDS011;12011;47.422;15.018;2023-09-18T01:40:04;4.00;;;4.00;;
23668;SDS011;12011;47.422;15.018;2023-09-18T01:42:36;4.03;;;4.03;;
23668;SDS011;12011;47.422;15.018;2023-09-18T01:45:08;3.99;;;3.99;;
23668;SDS011;12011;47.422;15.018;2023-09-18T01:47:39;4.05;;;4.05;;
23668;SDS011;12011;47.422;15.018;2023-09-18T01:50:09;4.29;;;4.29;;
23668;SDS011;12011;47.422;15.018;2023-09-18T01:52:39;4.43;;;4.43;;
23668;SDS011;12011;47.422;15.018;2023-09-18T01:55:12;3.97;;;3.97;;
23668;SDS011;12011;47.422;15.018;2023-09-18T01:57:42;4.18;;;4.18;;
23668;SDS011;12011;47.422;15.018;2023-09-18T02:00:13;4.59;;;4.59;;
23668;SDS011;12011;47.422;15.018;2023-09-18T02:02:45;4.45;;;4.45;;
23668;SDS011;12011;47.422;15.018;2023-09-18T02:05:15;4.77;;;4.77;;
23668;SDS011;12011;47.422;15.018;2023-09-18T02:07:45;5.01;;;5.01;;
23668;SDS011;12011;47.422;15.018;2023-09-18T02:10:19;4.55;;;4.55;;
23668;SDS011;12011;47.422;15.018;2023-09-18T02:12:49;4.17;;;4.17;;
23668;SDS011;12011;47.422;15.018;2023-09-18T02:15:18;4.28;;;4.28;;
23668;SDS011;12011;47.422;15.018;2023-09-18T02:17:48;4.69;;;4.69;;
23668;SDS011;12011;47.422;15.018;2023-09-18T02:20:19;4.73;;;4.73;;
23668;SDS011;12011;47.422;15.018;2023-09-18T02:22:49;4.32;;;4.32;;
23668;SDS011;12011;47.422;15.018;2023-09-18T02:25:21;3.57;;;3.57;;
23668;SDS011;12011;47.422;15.018;2023-09-18T02:27:51;4.02;;;4.02;;
23668;SDS011;12011;47.422;15.018;2023-09-18T02:30:22;4.47;;;4.47;;
23668;SDS011;12011;47.422;15.018;2023-09-18T02:32:53;4.62;;;4.62;;
23668;SDS011;12011;47.422;15.018;2023-09-18T02:35:23;4.18;;;4.18;;
23668;SDS011;12011;47.422;15.018;2023-09-18T02:37:52;4.40;;;4.40;;
23668;SDS011;12011;47.422;15.018;2023-09-18T02:40:24;4.55;;;4.55;;
23668;SDS011;12011;47.422;15.018;2023-09-18T02:42:54;4.44;;;4.44;;
23668;SDS011;12011;47.422;15.018;2023-09-18T02:45:24;4.80;;;4.80;;
23668;SDS011;12011;47.422;15.018;2023-09-18T02:47:54;4.51;;;4.51;;
23668;SDS011;12011;47.422;15.018;2023-09-18T02:50:27;4.26;;;4.26;;
23668;SDS011;12011;47.422;15.018;2023-09-18T02:52:56;4.52;;;4.52;;
23668;SDS011;12011;47.422;15.018;2023-09-18T02:55:29;4.60;;;4.60;;
23668;SDS011;12011;47.422;15.018;2023-09-18T02:57:59;4.21;;;4.21;;
23668;SDS011;12011;47.422;15.018;2023-09-18T03:00:29;3.91;;;3.91;;
23668;SDS011;12011;47.422;15.018;2023-09-18T03:02:59;4.12;;;4.12;;
23668;SDS011;12011;47.422;15.018;2023-09-18T03:05:31;4.46;;;4.46;;
23668;SDS011;12011;47.422;15.018;2023-09-18T03:08:00;4.08;;;4.08;;
23668;SDS011;12011;47.422;15.018;2023-09-18T03:10:35;3.94;;;3.94;;
23668;SDS011;12011;47.422;15.018;2023-09-18T03:13:08;4.25;;;4.25;;
23668;SDS011;12011;47.422;15.018;2023-09-18T03:15:45;4.31;;;4.31;;
23668;SDS011;12011;47.422;15.018;2023-09-18T03:18:15;4.47;;;4.47;;
23668;SDS011;12011;47.422;15.018;2023-09-18T03:20:46;4.53;;;4.53;;
23668;SDS011;12011;47.422;15.018;2023-09-18T03:23:15;4.24;;;4.24;;
23668;SDS011;12011;47.422;15.018;2023-09-18T03:28:36;4.96;;;4.96;;
23668;SDS011;12011;47.422;15.018;2023-09-18T03:31:06;4.50;;;4.50;;
23668;SDS011;12011;47.422;15.018;2023-09-18T03:33:36;6.07;;;6.05;;
23668;SDS011;12011;47.422;15.018;2023-09-18T03:36:08;4.67;;;4.67;;
23668;SDS011;12011;47.422;15.018;2023-09-18T03:38:47;9.19;;;9.19;;
23668;SDS011;12011;47.422;15.018;2023-09-18T03:42:29;4.82;;;4.82;;
23668;SDS011;12011;47.422;15.018;2023-09-18T03:46:30;4.87;;;4.87;;
23668;SDS011;12011;47.422;15.018;2023-09-18T03:49:53;4.85;;;4.85;;
23668;SDS011;12011;47.422;15.018;2023-09-18T03:53:16;4.74;;;4.74;;
23668;SDS011;12011;47.422;15.018;2023-09-18T04:03:35;3.83;;;3.83;;
23668;SDS011;12011;47.422;15.018;2023-09-18T04:07:36;4.16;;;4.16;;
23668;SDS011;12011;47.422;15.018;2023-09-18T04:11:00;4.32;;;4.32;;
23668;SDS011;12011;47.422;15.018;2023-09-18T04:17:20;5.53;;;5.53;;
23668;SDS011;12011;47.422;15.018;2023-09-18T04:19:51;5.76;;;5.76;;
23668;SDS011;12011;47.422;15.018;2023-09-18T04:22:20;6.36;;;6.36;;
23668;SDS011;12011;47.422;15.018;2023-09-18T04:24:51;6.08;;;6.03;;
23668;SDS011;12011;47.422;15.018;2023-09-18T04:27:21;5.65;;;5.65;;
23668;SDS011;12011;47.422;15.018;2023-09-18T04:29:51;5.88;;;5.87;;
23668;SDS011;12011;47.422;15.018;2023-09-18T04:32:26;5.85;;;5.85;;
23668;SDS011;12011;47.422;15.018;2023-09-18T04:35:13;5.71;;;5.71;;
23668;SDS011;12011;47.422;15.018;2023-09-18T04:37:43;5.81;;;5.81;;
23668;SDS011;12011;47.422;15.018;2023-09-18T04:40:14;5.49;;;5.49;;
23668;SDS011;12011;47.422;15.018;2023-09-18T04:42:50;5.93;;;5.93;;
23668;SDS011;12011;47.422;15.018;2023-09-18T05:00:51;6.34;;;6.30;;
23668;SDS011;12011;47.422;15.018;2023-09-18T05:04:46;6.26;;;6.26;;
23668;SDS011;12011;47.422;15.018;2023-09-18T05:10:43;6.59;;;6.54;;
23668;SDS011;12011;47.422;15.018;2023-09-18T06:46:51;5.60;;;5.60;;
23668;SDS011;12011;47.422;15.018;2023-09-18T06:51:04;4.93;;;4.93;;
23668;SDS011;12011;47.422;15.018;2023-09-18T06:55:38;4.94;;;4.94;;
23668;SDS011;12011;47.422;15.018;2023-09-18T07:37:33;4.98;;;4.98;;
23668;SDS011;12011;47.422;15.018;2023-09-18T07:40:55;5.24;;;5.24;;
23668;SDS011;12011;47.422;15.018;2023-09-18T07:43:50;5.09;;;5.09;;
23668;SDS011;12011;47.422;15.018;2023-09-18T07:47:26;4.74;;;4.74;;
23668;SDS011;12011;47.422;15.018;2023-09-18T07:53:32;4.64;;;4.64;;
23668;SDS011;12011;47.422;15.018;2023-09-18T08:00:44;4.78;;;4.78;;
23668;SDS011;12011;47.422;15.018;2023-09-18T08:03:33;4.48;;;4.48;;
23668;SDS011;12011;47.422;15.018;2023-09-18T08:06:28;4.19;;;4.19;;
23668;SDS011;12011;47.422;15.018;2023-09-18T08:09:01;4.39;;;4.39;;
23668;SDS011;12011;47.422;15.018;2023-09-18T08:11:44;4.25;;;4.25;;
23668;SDS011;12011;47.422;15.018;2023-09-18T08:18:11;4.04;;;4.04;;
23668;SDS011;12011;47.422;15.018;2023-09-18T08:21:07;3.90;;;3.90;;
23668;SDS011;12011;47.422;15.018;2023-09-18T08:27:32;3.84;;;3.84;;
23668;SDS011;12011;47.422;15.018;2023-09-18T08:30:36;3.94;;;3.94;;
23668;SDS011;12011;47.422;15.018;2023-09-18T08:33:21;3.75;;;3.75;;
23668;SDS011;12011;47.422;15.018;2023-09-18T08:36:01;3.73;;;3.73;;
23668;SDS011;12011;47.422;15.018;2023-09-18T08:38:38;3.65;;;3.65;;
23668;SDS011;12011;47.422;15.018;2023-09-18T08:41:45;3.39;;;3.39;;
23668;SDS011;12011;47.422;15.018;2023-09-18T08:44:29;3.53;;;3.53;;
23668;SDS011;12011;47.422;15.018;2023-09-18T08:47:42;3.81;;;3.81;;
23668;SDS011;12011;47.422;15.018;2023-09-18T08:50:24;3.70;;;3.70;;
23668;SDS011;12011;47.422;15.018;2023-09-18T08:53:32;3.65;;;3.65;;
23668;SDS011;12011;47.422;15.018;2023-09-18T08:56:10;3.63;;;3.63;;
23668;SDS011;12011;47.422;15.018;2023-09-18T09:02:07;3.34;;;3.34;;
23668;SDS011;12011;47.422;15.018;2023-09-18T09:04:39;3.80;;;3.80;;
23668;SDS011;12011;47.422;15.018;2023-09-18T09:07:10;3.33;;;3.33;;
23668;SDS011;12011;47.422;15.018;2023-09-18T09:09:47;3.64;;;3.64;;
23668;SDS011;12011;47.422;15.018;2023-09-18T09:15:26;3.79;;;3.79;;
23668;SDS011;12011;47.422;15.018;2023-09-18T09:18:09;3.55;;;3.55;;
23668;SDS011;12011;47.422;15.018;2023-09-18T09:20:52;3.20;;;3.20;;
23668;SDS011;12011;47.422;15.018;2023-09-18T09:23:27;3.08;;;3.08;;
23668;SDS011;12011;47.422;15.018;2023-09-18T09:26:17;2.84;;;2.84;;
23668;SDS011;12011;47.422;15.018;2023-09-18T09:28:49;3.13;;;3.13;;
23668;SDS011;12011;47.422;15.018;2023-09-18T09:31:27;3.02;;;3.02;;
23668;SDS011;12011;47.422;15.018;2023-09-18T09:34:03;2.97;;;2.97;;
23668;SDS011;12011;47.422;15.018;2023-09-18T09:39:21;2.92;;;2.92;;
23668;SDS011;12011;47.422;15.018;2023-09-18T09:41:52;3.31;;;3.31;;
23668;SDS011;12011;47.422;15.018;2023-09-18T09:44:23;3.00;;;3.00;;
23668;SDS011;12011;47.422;15.018;2023-09-18T09:46:59;3.11;;;3.11;;
23668;SDS011;12011;47.422;15.018;2023-09-18T09:49:31;2.78;;;2.78;;
23668;SDS011;12011;47.422;15.018;2023-09-18T09:52:20;3.15;;;3.15;;
23668;SDS011;12011;47.422;15.018;2023-09-18T09:54:52;2.94;;;2.94;;
23668;SDS011;12011;47.422;15.018;2023-09-18T09:57:26;2.84;;;2.84;;
23668;SDS011;12011;47.422;15.018;2023-09-18T10:00:12;2.61;;;2.61;;
23668;SDS011;12011;47.422;15.018;2023-09-18T10:03:18;2.86;;;2.86;;
23668;SDS011;12011;47.422;15.018;2023-09-18T10:05:54;2.85;;;2.85;;
23668;SDS011;12011;47.422;15.018;2023-09-18T10:08:43;2.37;;;2.37;;
23668;SDS011;12011;47.422;15.018;2023-09-18T10:12:06;2.81;;;2.81;;
23668;SDS011;12011;47.422;15.018;2023-09-18T10:14:56;2.89;;;2.89;;
23668;SDS011;12011;47.422;15.018;2023-09-18T10:17:43;2.80;;;2.80;;
23668;SDS011;12011;47.422;15.018;2023-09-18T10:20:39;2.61;;;2.61;;
23668;SDS011;12011;47.422;15.018;2023-09-18T10:23:58;2.54;;;2.54;;
23668;SDS011;12011;47.422;15.018;2023-09-18T10:27:04;2.86;;;2.86;;
23668;SDS011;12011;47.422;15.018;2023-09-18T10:30:10;2.74;;;2.74;;
23668;SDS011;12011;47.422;15.018;2023-09-18T10:33:06;3.08;;;3.08;;
23668;SDS011;12011;47.422;15.018;2023-09-18T10:40:03;2.57;;;2.57;;
23668;SDS011;12011;47.422;15.018;2023-09-18T10:43:17;2.67;;;2.67;;
23668;SDS011;12011;47.422;15.018;2023-09-18T10:50:13;2.24;;;2.24;;
23668;SDS011;12011;47.422;15.018;2023-09-18T10:54:17;2.24;;;2.24;;
23668;SDS011;12011;47.422;15.018;2023-09-18T10:57:16;2.29;;;2.29;;
23668;SDS011;12011;47.422;15.018;2023-09-18T11:04:12;2.35;;;2.35;;
23668;SDS011;12011;47.422;15.018;2023-09-18T11:07:59;2.91;;;2.91;;
23668;SDS011;12011;47.422;15.018;2023-09-18T11:11:35;2.75;;;2.75;;
23668;SDS011;12011;47.422;15.018;2023-09-18T11:14:44;2.82;;;2.82;;
23668;SDS011;12011;47.422;15.018;2023-09-18T11:17:57;2.57;;;2.57;;
23668;SDS011;12011;47.422;15.018;2023-09-18T11:21:28;2.74;;;2.74;;
23668;SDS011;12011;47.422;15.018;2023-09-18T11:24:14;2.67;;;2.67;;
23668;SDS011;12011;47.422;15.018;2023-09-18T11:27:00;2.56;;;2.56;;
23668;SDS011;12011;47.422;15.018;2023-09-18T11:29:43;2.62;;;2.62;;
23668;SDS011;12011;47.422;15.018;2023-09-18T11:32:38;2.71;;;2.71;;
23668;SDS011;12011;47.422;15.018;2023-09-18T11:35:26;2.74;;;2.74;;
23668;SDS011;12011;47.422;15.018;2023-09-18T11:38:05;2.60;;;2.60;;
23668;SDS011;12011;47.422;15.018;2023-09-18T11:40:56;2.40;;;2.40;;
23668;SDS011;12011;47.422;15.018;2023-09-18T11:47:23;2.87;;;2.87;;
23668;SDS011;12011;47.422;15.018;2023-09-18T11:50:25;2.58;;;2.58;;
23668;SDS011;12011;47.422;15.018;2023-09-18T11:53:20;2.61;;;2.61;;
23668;SDS011;12011;47.422;15.018;2023-09-18T11:57:08;3.17;;;3.17;;
23668;SDS011;12011;47.422;15.018;2023-09-18T12:03:33;3.69;;;3.69;;
23668;SDS011;12011;47.422;15.018;2023-09-18T12:07:01;3.32;;;3.32;;
23668;SDS011;12011;47.422;15.018;2023-09-18T12:09:53;3.28;;;3.28;;
23668;SDS011;12011;47.422;15.018;2023-09-18T12:13:14;3.45;;;3.45;;
23668;SDS011;12011;47.422;15.018;2023-09-18T12:16:43;3.40;;;3.40;;
23668;SDS011;12011;47.422;15.018;2023-09-18T12:19:58;3.64;;;3.64;;
23668;SDS011;12011;47.422;15.018;2023-09-18T12:23:09;3.68;;;3.68;;
23668;SDS011;12011;47.422;15.018;2023-09-18T12:29:39;3.59;;;3.59;;
23668;SDS011;12011;47.422;15.018;2023-09-18T12:32:42;3.69;;;3.69;;
23668;SDS011;12011;47.422;15.018;2023-09-18T12:35:48;3.59;;;3.59;;
23668;SDS011;12011;47.422;15.018;2023-09-18T12:53:37;4.26;;;4.23;;
23668;SDS011;12011;47.422;15.018;2023-09-18T12:57:02;4.49;;;4.39;;
23668;SDS011;12011;47.422;15.018;2023-09-18T13:00:07;4.30;;;4.26;;
23668;SDS011;12011;47.422;15.018;2023-09-18T13:03:41;4.22;;;4.22;;
23668;SDS011;12011;47.422;15.018;2023-09-18T13:06:45;4.18;;;4.18;;
23668;SDS011;12011;47.422;15.018;2023-09-18T13:10:37;4.23;;;4.23;;
23668;SDS011;12011;47.422;15.018;2023-09-18T13:13:59;4.17;;;4.17;;
23668;SDS011;12011;47.422;15.018;2023-09-18T13:16:36;4.27;;;4.27;;
23668;SDS011;12011;47.422;15.018;2023-09-18T13:22:55;4.63;;;4.45;;
23668;SDS011;12011;47.422;15.018;2023-09-18T13:26:45;4.94;;;4.55;;
23668;SDS011;12011;47.422;15.018;2023-09-18T13:41:44;5.60;;;4.86;;
23668;SDS011;12011;47.422;15.018;2023-09-18T13:44:53;5.43;;;4.75;;
23668;SDS011;12011;47.422;15.018;2023-09-18T13:48:12;5.05;;;4.59;;
23668;SDS011;12011;47.422;15.018;2023-09-18T13:59:22;5.00;;;4.38;;
23668;SDS011;12011;47.422;15.018;2023-09-18T14:01:54;6.23;;;5.30;;
23668;SDS011;12011;47.422;15.018;2023-09-18T14:04:27;5.39;;;4.59;;
23668;SDS011;12011;47.422;15.018;2023-09-18T14:07:06;5.53;;;4.80;;
23668;SDS011;12011;47.422;15.018;2023-09-18T15:21:20;5.45;;;5.06;;
23668;SDS011;12011;47.422;15.018;2023-09-18T15:25:31;4.97;;;4.92;;
23668;SDS011;12011;47.422;15.018;2023-09-18T16:01:46;5.23;;;5.23;;
23668;SDS011;12011;47.422;15.018;2023-09-18T16:04:22;5.22;;;5.21;;
23668;SDS011;12011;47.422;15.018;2023-09-18T16:07:30;4.72;;;4.60;;
23668;SDS011;12011;47.422;15.018;2023-09-18T16:10:13;4.58;;;4.26;;
23668;SDS011;12011;47.422;15.018;2023-09-18T16:12:44;4.17;;;3.73;;
23668;SDS011;12011;47.422;15.018;2023-09-18T16:15:14;3.71;;;3.33;;
23668;SDS011;12011;47.422;15.018;2023-09-18T16:17:47;3.12;;;2.85;;
23668;SDS011;12011;47.422;15.018;2023-09-18T16:20:16;2.93;;;2.69;;
23668;SDS011;12011;47.422;15.018;2023-09-18T16:22:46;2.72;;;2.53;;
23668;SDS011;12011;47.422;15.018;2023-09-18T16:25:16;2.61;;;2.44;;
23668;SDS011;12011;47.422;15.018;2023-09-18T16:27:45;3.02;;;2.86;;
23668;SDS011;12011;47.422;15.018;2023-09-18T16:30:16;3.41;;;3.24;;
23668;SDS011;12011;47.422;15.018;2023-09-18T16:32:48;3.03;;;2.93;;
23668;SDS011;12011;47.422;15.018;2023-09-18T16:35:18;3.35;;;3.24;;
23668;SDS011;12011;47.422;15.018;2023-09-18T16:37:47;3.40;;;3.32;;
23668;SDS011;12011;47.422;15.018;2023-09-18T16:40:17;3.68;;;3.58;;
23668;SDS011;12011;47.422;15.018;2023-09-18T16:42:46;3.39;;;3.31;;
23668;SDS011;12011;47.422;15.018;2023-09-18T16:45:16;3.56;;;3.48;;
23668;SDS011;12011;47.422;15.018;2023-09-18T16:47:48;3.41;;;3.35;;
23668;SDS011;12011;47.422;15.018;2023-09-18T16:50:18;3.48;;;3.42;;
23668;SDS011;12011;47.422;15.018;2023-09-18T16:52:49;3.09;;;3.00;;
23668;SDS011;12011;47.422;15.018;2023-09-18T16:55:18;3.31;;;3.20;;
23668;SDS011;12011;47.422;15.018;2023-09-18T16:57:48;3.00;;;2.87;;
23668;SDS011;12011;47.422;15.018;2023-09-18T17:00:17;2.87;;;2.74;;
23668;SDS011;12011;47.422;15.018;2023-09-18T17:02:50;2.75;;;2.66;;
23668;SDS011;12011;47.422;15.018;2023-09-18T17:05:20;2.50;;;2.43;;
23668;SDS011;12011;47.422;15.018;2023-09-18T17:07:49;2.63;;;2.54;;
23668;SDS011;12011;47.422;15.018;2023-09-18T17:10:20;2.48;;;2.40;;
23668;SDS011;12011;47.422;15.018;2023-09-18T17:12:51;2.24;;;2.17;;
23668;SDS011;12011;47.422;15.018;2023-09-18T17:15:21;2.80;;;2.68;;
23668;SDS011;12011;47.422;15.018;2023-09-18T17:17:54;2.64;;;2.54;;
23668;SDS011;12011;47.422;15.018;2023-09-18T17:20:27;2.75;;;2.66;;
23668;SDS011;12011;47.422;15.018;2023-09-18T17:22:57;2.46;;;2.38;;
23668;SDS011;12011;47.422;15.018;2023-09-18T17:25:29;2.42;;;2.37;;
23668;SDS011;12011;47.422;15.018;2023-09-18T17:28:00;2.51;;;2.43;;
23668;SDS011;12011;47.422;15.018;2023-09-18T17:30:30;2.24;;;2.23;;
23668;SDS011;12011;47.422;15.018;2023-09-18T17:33:03;2.33;;;2.31;;
23668;SDS011;12011;47.422;15.018;2023-09-18T17:35:33;2.38;;;2.31;;
23668;SDS011;12011;47.422;15.018;2023-09-18T17:38:03;2.32;;;2.31;;
23668;SDS011;12011;47.422;15.018;2023-09-18T17:40:32;2.11;;;2.11;;
23668;SDS011;12011;47.422;15.018;2023-09-18T17:43:02;2.73;;;2.69;;
23668;SDS011;12011;47.422;15.018;2023-09-18T17:45:32;2.89;;;2.80;;
23668;SDS011;12011;47.422;15.018;2023-09-18T17:48:05;2.84;;;2.77;;
23668;SDS011;12011;47.422;15.018;2023-09-18T17:50:35;2.59;;;2.53;;
23668;SDS011;12011;47.422;15.018;2023-09-18T17:53:05;2.62;;;2.59;;
23668;SDS011;12011;47.422;15.018;2023-09-18T17:55:34;2.90;;;2.87;;
23668;SDS011;12011;47.422;15.018;2023-09-18T17:58:04;2.76;;;2.74;;
23668;SDS011;12011;47.422;15.018;2023-09-18T18:00:34;2.59;;;2.54;;
23668;SDS011;12011;47.422;15.018;2023-09-18T18:03:07;3.10;;;3.02;;
23668;SDS011;12011;47.422;15.018;2023-09-18T18:05:39;2.73;;;2.66;;
23668;SDS011;12011;47.422;15.018;2023-09-18T18:08:09;2.90;;;2.86;;
23668;SDS011;12011;47.422;15.018;2023-09-18T18:10:41;3.22;;;3.20;;
23668;SDS011;12011;47.422;15.018;2023-09-18T18:13:12;2.88;;;2.85;;
23668;SDS011;12011;47.422;15.018;2023-09-18T18:15:42;2.74;;;2.69;;
23668;SDS011;12011;47.422;15.018;2023-09-18T18:18:15;2.90;;;2.89;;
23668;SDS011;12011;47.422;15.018;2023-09-18T18:20:44;2.75;;;2.75;;
23668;SDS011;12011;47.422;15.018;2023-09-18T18:23:14;2.85;;;2.85;;
23668;SDS011;12011;47.422;15.018;2023-09-18T18:25:44;2.45;;;2.45;;
23668;SDS011;12011;47.422;15.018;2023-09-18T18:28:14;2.93;;;2.92;;
23668;SDS011;12011;47.422;15.018;2023-09-18T18:30:43;2.65;;;2.65;;
23668;SDS011;12011;47.422;15.018;2023-09-18T18:33:20;2.37;;;2.37;;
23668;SDS011;12011;47.422;15.018;2023-09-18T18:35:50;2.49;;;2.47;;
23668;SDS011;12011;47.422;15.018;2023-09-18T18:38:20;2.55;;;2.51;;
23668;SDS011;12011;47.422;15.018;2023-09-18T18:40:54;2.22;;;2.20;;
23668;SDS011;12011;47.422;15.018;2023-09-18T18:43:31;2.53;;;2.47;;
23668;SDS011;12011;47.422;15.018;2023-09-18T18:46:02;2.95;;;2.86;;
23668;SDS011;12011;47.422;15.018;2023-09-18T18:48:37;3.03;;;2.95;;
23668;SDS011;12011;47.422;15.018;2023-09-18T18:51:07;2.68;;;2.63;;
23668;SDS011;12011;47.422;15.018;2023-09-18T18:53:41;2.49;;;2.48;;
23668;SDS011;12011;47.422;15.018;2023-09-18T18:56:11;2.72;;;2.69;;
23668;SDS011;12011;47.422;15.018;2023-09-18T18:58:41;2.48;;;2.44;;
23668;SDS011;12011;47.422;15.018;2023-09-18T19:01:13;2.67;;;2.64;;
23668;SDS011;12011;47.422;15.018;2023-09-18T19:03:53;2.72;;;2.71;;
23668;SDS011;12011;47.422;15.018;2023-09-18T19:06:46;2.95;;;2.95;;
23668;SDS011;12011;47.422;15.018;2023-09-18T19:09:21;2.88;;;2.88;;
23668;SDS011;12011;47.422;15.018;2023-09-18T19:11:58;2.52;;;2.52;;
23668;SDS011;12011;47.422;15.018;2023-09-18T19:14:34;2.67;;;2.67;;
23668;SDS011;12011;47.422;15.018;2023-09-18T19:17:09;2.94;;;2.94;;
23668;SDS011;12011;47.422;15.018;2023-09-18T19:19:50;3.40;;;3.40;;
23668;SDS011;12011;47.422;15.018;2023-09-18T19:22:19;3.07;;;3.05;;
23668;SDS011;12011;47.422;15.018;2023-09-18T19:24:52;3.19;;;3.19;;
23668;SDS011;12011;47.422;15.018;2023-09-18T19:27:22;3.39;;;3.37;;
23668;SDS011;12011;47.422;15.018;2023-09-18T19:30:00;3.24;;;3.24;;
23668;SDS011;12011;47.422;15.018;2023-09-18T19:32:29;3.11;;;3.11;;
23668;SDS011;12011;47.422;15.018;2023-09-18T19:35:02;2.95;;;2.94;;
23668;SDS011;12011;47.422;15.018;2023-09-18T19:37:32;2.84;;;2.83;;
23668;SDS011;12011;47.422;15.018;2023-09-18T19:40:03;3.17;;;3.16;;
23668;SDS011;12011;47.422;15.018;2023-09-18T19:42:37;3.06;;;3.06;;
23668;SDS011;12011;47.422;15.018;2023-09-18T19:45:07;4.81;;;4.42;;
23668;SDS011;12011;47.422;15.018;2023-09-18T19:47:37;3.37;;;3.16;;
23668;SDS011;12011;47.422;15.018;2023-09-18T19:50:10;2.96;;;2.87;;
23668;SDS011;12011;47.422;15.018;2023-09-18T19:52:41;2.72;;;2.68;;
23668;SDS011;12011;47.422;15.018;2023-09-18T19:55:11;2.95;;;2.93;;
23668;SDS011;12011;47.422;15.018;2023-09-18T19:57:41;2.91;;;2.90;;
23668;SDS011;12011;47.422;15.018;2023-09-18T20:00:11;3.00;;;2.98;;
23668;SDS011;12011;47.422;15.018;2023-09-18T20:02:45;2.76;;;2.75;;
23668;SDS011;12011;47.422;15.018;2023-09-18T20:05:18;2.56;;;2.56;;
23668;SDS011;12011;47.422;15.018;2023-09-18T20:07:51;2.68;;;2.68;;
23668;SDS011;12011;47.422;15.018;2023-09-18T20:10:21;2.72;;;2.71;;
23668;SDS011;12011;47.422;15.018;2023-09-18T20:12:53;2.76;;;2.70;;
23668;SDS011;12011;47.422;15.018;2023-09-18T20:15:23;2.88;;;2.84;;
23668;SDS011;12011;47.422;15.018;2023-09-18T20:17:54;2.56;;;2.55;;
23668;SDS011;12011;47.422;15.018;2023-09-18T20:20:27;2.29;;;2.28;;
23668;SDS011;12011;47.422;15.018;2023-09-18T20:22:57;2.56;;;2.56;;
23668;SDS011;12011;47.422;15.018;2023-09-18T20:25:28;2.73;;;2.72;;
23668;SDS011;12011;47.422;15.018;2023-09-18T20:27:58;3.25;;;3.19;;
23668;SDS011;12011;47.422;15.018;2023-09-18T20:30:31;2.83;;;2.75;;
23668;SDS011;12011;47.422;15.018;2023-09-18T20:33:02;2.71;;;2.64;;
23668;SDS011;12011;47.422;15.018;2023-09-18T20:35:35;2.94;;;2.93;;
23668;SDS011;12011;47.422;15.018;2023-09-18T20:38:04;2.87;;;2.85;;
23668;SDS011;12011;47.422;15.018;2023-09-18T20:40:34;2.90;;;2.88;;
23668;SDS011;12011;47.422;15.018;2023-09-18T20:43:06;2.76;;;2.76;;
23668;SDS011;12011;47.422;15.018;2023-09-18T20:45:37;2.95;;;2.89;;
23668;SDS011;12011;47.422;15.018;2023-09-18T20:48:07;2.67;;;2.64;;
23668;SDS011;12011;47.422;15.018;2023-09-18T20:50:40;2.57;;;2.55;;
23668;SDS011;12011;47.422;15.018;2023-09-18T20:53:10;2.33;;;2.32;;
23668;SDS011;12011;47.422;15.018;2023-09-18T20:55:39;2.49;;;2.46;;
23668;SDS011;12011;47.422;15.018;2023-09-18T20:58:09;2.73;;;2.73;;
23668;SDS011;12011;47.422;15.018;2023-09-18T21:00:40;2.59;;;2.59;;
23668;SDS011;12011;47.422;15.018;2023-09-18T21:03:10;2.99;;;2.96;;
23668;SDS011;12011;47.422;15.018;2023-09-18T21:05:43;2.91;;;2.84;;
23668;SDS011;12011;47.422;15.018;2023-09-18T21:08:12;3.04;;;3.01;;
23668;SDS011;12011;47.422;15.018;2023-09-18T21:10:42;2.68;;;2.67;;
23668;SDS011;12011;47.422;15.018;2023-09-18T21:13:11;2.69;;;2.65;;
23668;SDS011;12011;47.422;15.018;2023-09-18T21:15:41;2.92;;;2.90;;
23668;SDS011;12011;47.422;15.018;2023-09-18T21:18:11;1.45;;;1.45;;
23668;SDS011;12011;47.422;15.018;2023-09-18T21:20:43;1.07;;;1.06;;
23668;SDS011;12011;47.422;15.018;2023-09-18T21:23:12;1.11;;;1.11;;
23668;SDS011;12011;47.422;15.018;2023-09-18T21:25:42;0.82;;;0.82;;
23668;SDS011;12011;47.422;15.018;2023-09-18T21:28:17;0.62;;;0.62;;
23668;SDS011;12011;47.422;15.018;2023-09-18T21:30:47;0.70;;;0.69;;
23668;SDS011;12011;47.422;15.018;2023-09-18T21:33:16;0.79;;;0.77;;
23668;SDS011;12011;47.422;15.018;2023-09-18T21:35:49;0.63;;;0.61;;
23668;SDS011;12011;47.422;15.018;2023-09-18T21:38:18;0.50;;;0.49;;
23668;SDS011;12011;47.422;15.018;2023-09-18T21:40:48;0.59;;;0.57;;
23668;SDS011;12011;47.422;15.018;2023-09-18T21:43:18;0.41;;;0.40;;
23668;SDS011;12011;47.422;15.018;2023-09-18T21:45:50;0.51;;;0.50;;
23668;SDS011;12011;47.422;15.018;2023-09-18T21:48:20;0.30;;;0.30;;
23668;SDS011;12011;47.422;15.018;2023-09-18T21:50:52;0.54;;;0.54;;
23668;SDS011;12011;47.422;15.018;2023-09-18T21:53:22;0.58;;;0.56;;